Time;durP1;ratioP1;P1;durP2;ratioP2;P2;SDS_P1;SDS_P2;PMS_P1;PMS_P2;Temp;Humidity;BMP_temperature;BMP_pressure;BME280_temperature;BME280_humidity;BME280_pressure;Samples;Min_cycle;Max_cycle;Signal;HPM_P1;HPM_P2
2021/06/05 00:00:55;;;;;;;12.88;6.38;;;;;18.30;100634.00;;;;5068093;28;20735;-72
2021/06/05 00:03:23;;;;;;;10.20;6.03;;;;;18.20;100640.00;;;;5066356;28;20522;-72
2021/06/05 00:05:57;;;;;;;11.07;6.22;;;;;18.30;100633.00;;;;5065863;28;20507;-71
2021/06/05 00:08:25;;;;;;;10.15;6.15;;;;;18.30;100634.00;;;;5067967;28;20654;-71
2021/06/05 00:10:56;;;;;;;10.20;5.57;;;;;18.10;100630.00;;;;5066260;28;20031;-72
2021/06/05 00:13:26;;;;;;;11.32;6.28;;;;;18.20;100623.00;;;;5066817;28;20036;-72
2021/06/05 00:15:53;;;;;;;10.67;5.73;;;;;18.20;100619.00;;;;5048830;28;20043;-71
2021/06/05 00:18:22;;;;;;;8.57;5.75;;;;;18.10;100629.00;;;;5066321;28;20032;-71
2021/06/05 00:20:49;;;;;;;12.43;6.65;;;;;18.00;100616.00;;;;5067702;28;20032;-71
2021/06/05 00:23:19;;;;;;;10.75;6.53;;;;;17.90;100605.00;;;;5067507;28;20051;-72
2021/06/05 00:25:47;;;;;;;10.90;6.78;;;;;18.10;100607.00;;;;5066672;28;20112;-72
2021/06/05 00:28:14;;;;;;;7.32;5.13;;;;;18.10;100621.00;;;;5066623;28;20056;-71
2021/06/05 00:30:41;;;;;;;11.85;6.55;;;;;18.00;100612.00;;;;5067666;28;20664;-72
2021/06/05 00:33:08;;;;;;;10.00;6.00;;;;;18.10;100606.00;;;;5067024;28;20033;-71
2021/06/05 00:35:36;;;;;;;7.78;5.15;;;;;18.10;100614.00;;;;5066693;28;20156;-70
2021/06/05 00:38:03;;;;;;;13.32;5.45;;;;;18.00;100601.00;;;;5066654;28;20111;-71
2021/06/05 00:40:33;;;;;;;14.40;5.72;;;;;18.00;100618.00;;;;5066118;28;20117;-70
2021/06/05 00:43:01;;;;;;;9.68;5.90;;;;;17.90;100626.00;;;;5066990;28;20505;-70
2021/06/05 00:45:34;;;;;;;12.15;5.80;;;;;17.90;100615.00;;;;5066876;28;20032;-72
2021/06/05 00:48:01;;;;;;;6.93;5.50;;;;;17.80;100594.00;;;;5067977;28;20188;-71
2021/06/05 00:50:28;;;;;;;11.13;5.70;;;;;17.90;100602.00;;;;5066580;28;20511;-73
2021/06/05 00:52:56;;;;;;;8.25;5.55;;;;;17.90;100596.00;;;;5066506;28;20495;-71
2021/06/05 00:55:26;;;;;;;9.68;6.03;;;;;17.90;100609.00;;;;5066155;28;20028;-71
2021/06/05 00:57:52;;;;;;;10.32;6.60;;;;;17.90;100598.00;;;;5065820;28;20063;-72
2021/06/05 01:00:19;;;;;;;10.50;5.35;;;;;17.70;100610.00;;;;5066646;28;20412;-71
2021/06/05 01:02:46;;;;;;;9.20;5.15;;;;;17.80;100587.00;;;;5066415;28;20029;-72
2021/06/05 01:05:12;;;;;;;7.05;5.22;;;;;17.80;100608.00;;;;5066165;28;20108;-72
2021/06/05 01:07:40;;;;;;;9.38;5.70;;;;;17.80;100588.00;;;;5065649;28;20031;-72
2021/06/05 01:10:20;;;;;;;9.82;4.95;;;;;17.60;100591.00;;;;5066595;28;20072;-72
2021/06/05 01:13:08;;;;;;;7.90;5.65;;;;;17.60;100592.00;;;;5066485;28;20583;-73
2021/06/05 01:16:04;;;;;;;7.63;5.38;;;;;17.70;100602.00;;;;5066329;28;20055;-72
2021/06/05 01:18:43;;;;;;;6.70;4.80;;;;;17.60;100582.00;;;;5065596;28;20094;-72
2021/06/05 01:21:19;;;;;;;7.75;4.93;;;;;17.70;100593.00;;;;5048150;28;20586;-72
2021/06/05 01:24:04;;;;;;;8.05;5.13;;;;;17.60;100590.00;;;;5066163;28;20640;-73
2021/06/05 01:26:33;;;;;;;8.40;4.95;;;;;17.60;100582.00;;;;5066120;28;20033;-73
2021/06/05 01:29:31;;;;;;;7.00;4.75;;;;;17.60;100597.00;;;;5067125;28;20064;-73
2021/06/05 01:32:04;;;;;;;9.05;5.00;;;;;17.70;100575.00;;;;5049727;28;20044;-73
2021/06/05 01:34:35;;;;;;;7.00;4.95;;;;;17.60;100569.00;;;;5066623;28;20028;-74
2021/06/05 01:37:01;;;;;;;;;;;;;17.50;100575.00;;;;5066271;28;20028;-73
2021/06/05 01:39:32;;;;;;;6.25;4.78;;;;;17.40;100579.00;;;;5065632;28;19939;-72
2021/06/05 01:42:01;;;;;;;6.03;5.05;;;;;17.40;100581.00;;;;5047877;28;20086;-73
2021/06/05 01:44:31;;;;;;;11.70;5.18;;;;;17.60;100592.00;;;;5065062;28;20082;-72
2021/06/05 01:46:57;;;;;;;10.90;5.43;;;;;17.40;100579.00;;;;5065912;28;20028;-73
2021/06/05 01:49:25;;;;;;;7.38;4.38;;;;;17.30;100587.00;;;;5064686;28;20078;-72
2021/06/05 01:51:55;;;;;;;6.25;4.80;;;;;17.30;100597.00;;;;5065344;28;20040;-72
2021/06/05 01:54:46;;;;;;;8.25;5.32;;;;;17.20;100592.00;;;;5065170;28;20380;-71
2021/06/05 01:57:18;;;;;;;7.20;5.13;;;;;17.40;100577.00;;;;5063694;28;20037;-73
2021/06/05 01:59:46;;;;;;;9.18;4.88;;;;;17.30;100588.00;;;;5064782;28;20044;-73
2021/06/05 02:02:13;;;;;;;9.15;5.15;;;;;17.40;100589.00;;;;5065543;28;20171;-73
2021/06/05 02:04:39;;;;;;;6.78;4.82;;;;;17.30;100571.00;;;;5064844;28;20058;-71
2021/06/05 02:07:07;;;;;;;7.85;4.85;;;;;17.50;100570.00;;;;5065527;28;20036;-73
2021/06/05 02:09:34;;;;;;;10.70;5.65;;;;;17.40;100580.00;;;;5064444;28;20036;-73
2021/06/05 02:12:18;;;;;;;11.57;4.93;;;;;17.40;100572.00;;;;5064180;28;20048;-73
2021/06/05 02:15:00;;;;;;;9.90;5.40;;;;;17.30;100572.00;;;;5064861;28;20028;-72
2021/06/05 02:17:32;;;;;;;9.70;5.07;;;;;17.10;100587.00;;;;5065311;28;20120;-72
2021/06/05 02:20:05;;;;;;;8.18;5.13;;;;;17.10;100575.00;;;;5064377;28;20031;-72
2021/06/05 02:22:33;;;;;;;7.80;5.50;;;;;17.10;100580.00;;;;5064224;28;20516;-72
2021/06/05 02:25:01;;;;;;;7.32;5.10;;;;;17.00;100582.00;;;;5064836;28;20085;-73
2021/06/05 02:27:30;;;;;;;14.68;5.40;;;;;17.10;100567.00;;;;5064016;28;20879;-72
2021/06/05 02:29:59;;;;;;;6.88;5.20;;;;;17.00;100576.00;;;;5063566;28;20044;-72
2021/06/05 02:32:30;;;;;;;9.93;5.68;;;;;17.00;100566.00;;;;5063650;28;20032;-72
2021/06/05 02:34:59;;;;;;;14.32;7.53;;;;;17.00;100569.00;;;;5063814;28;20050;-73
2021/06/05 02:37:29;;;;;;;10.90;6.03;;;;;17.00;100572.00;;;;5063723;28;20103;-72
2021/06/05 02:40:05;;;;;;;19.67;8.15;;;;;17.10;100559.00;;;;5064308;28;20522;-74
2021/06/05 02:42:32;;;;;;;13.70;7.90;;;;;17.10;100566.00;;;;5064666;28;20039;-73
2021/06/05 02:45:01;;;;;;;12.95;8.68;;;;;17.10;100564.00;;;;5063438;28;20040;-72
2021/06/05 02:47:28;;;;;;;10.73;6.90;;;;;17.00;100565.00;;;;5063672;28;20037;-73
2021/06/05 02:50:00;;;;;;;10.30;6.82;;;;;16.90;100563.00;;;;5064078;28;20512;-73
2021/06/05 02:52:31;;;;;;;10.65;6.75;;;;;17.00;100551.00;;;;5064392;28;20078;-73
2021/06/05 02:55:16;;;;;;;8.05;5.90;;;;;16.90;100561.00;;;;5064706;28;20032;-73
2021/06/05 02:57:43;;;;;;;7.15;5.80;;;;;16.80;100551.00;;;;5064248;28;20029;-73
2021/06/05 03:00:14;;;;;;;7.93;6.47;;;;;16.80;100548.00;;;;5064442;28;20097;-73
2021/06/05 03:02:40;;;;;;;;;;;;;16.80;100551.00;;;;5065396;28;20090;-72
2021/06/05 03:05:08;;;;;;;9.18;5.72;;;;;16.80;100547.00;;;;5063464;28;19975;-73
2021/06/05 03:07:35;;;;;;;6.93;5.50;;;;;16.80;100552.00;;;;5064194;28;20411;-72
2021/06/05 03:10:03;;;;;;;13.98;5.95;;;;;16.70;100536.00;;;;5063322;28;20103;-72
2021/06/05 03:12:29;;;;;;;9.15;6.20;;;;;16.70;100554.00;;;;5063283;28;20025;-72
2021/06/05 03:14:56;;;;;;;8.15;6.10;;;;;16.80;100562.00;;;;5063611;28;20079;-73
2021/06/05 03:17:22;;;;;;;8.32;6.25;;;;;16.70;100540.00;;;;5063931;28;20028;-72
2021/06/05 03:19:49;;;;;;;9.18;6.45;;;;;16.60;100542.00;;;;5064452;28;20024;-73
2021/06/05 03:22:15;;;;;;;8.90;6.13;;;;;16.60;100535.00;;;;5063565;28;20029;-73
2021/06/05 03:24:42;;;;;;;9.40;5.85;;;;;16.60;100545.00;;;;5063781;28;20029;-72
2021/06/05 03:27:09;;;;;;;9.60;5.85;;;;;16.70;100553.00;;;;5044850;28;20085;-72
2021/06/05 03:29:38;;;;;;;8.18;5.70;;;;;16.70;100547.00;;;;5063287;28;20083;-74
2021/06/05 03:32:06;;;;;;;6.90;5.50;;;;;16.60;100555.00;;;;5063697;28;20503;-72
2021/06/05 03:34:32;;;;;;;9.27;5.53;;;;;16.60;100551.00;;;;5063394;28;20040;-72
2021/06/05 03:36:59;;;;;;;7.43;5.70;;;;;16.70;100545.00;;;;5063780;28;20032;-72
2021/06/05 03:39:25;;;;;;;7.38;4.93;;;;;16.60;100556.00;;;;5064056;28;20074;-73
2021/06/05 03:41:52;;;;;;;7.22;5.45;;;;;16.60;100545.00;;;;5063513;28;20033;-72
2021/06/05 03:44:18;;;;;;;11.18;5.28;;;;;16.60;100543.00;;;;5063005;28;20024;-73
2021/06/05 03:46:47;;;;;;;7.68;5.68;;;;;16.50;100565.00;;;;5045343;28;20036;-73
2021/06/05 03:49:14;;;;;;;6.50;5.20;;;;;16.50;100560.00;;;;5063570;28;20032;-72
2021/06/05 03:51:40;;;;;;;8.75;5.75;;;;;16.50;100547.00;;;;5063319;28;20024;-73
2021/06/05 03:54:07;;;;;;;10.32;6.07;;;;;16.50;100549.00;;;;5063474;28;20033;-72
2021/06/05 03:56:34;;;;;;;8.02;5.05;;;;;16.70;100548.00;;;;5063170;28;20043;-73
2021/06/05 03:59:01;;;;;;;10.45;5.50;;;;;16.50;100545.00;;;;5063645;28;20032;-73
2021/06/05 04:01:29;;;;;;;8.90;5.43;;;;;16.50;100555.00;;;;5063209;28;20041;-72
2021/06/05 04:03:55;;;;;;;9.63;5.68;;;;;16.50;100566.00;;;;5063078;28;20025;-73
2021/06/05 04:06:24;;;;;;;8.68;5.57;;;;;16.50;100563.00;;;;5062651;28;20159;-73
2021/06/05 04:08:52;;;;;;;7.60;5.53;;;;;16.60;100543.00;;;;5063006;28;20028;-72
2021/06/05 04:11:19;;;;;;;6.00;5.40;;;;;16.70;100551.00;;;;5062792;28;20028;-73
2021/06/05 04:13:46;;;;;;;6.22;5.60;;;;;16.70;100552.00;;;;5063509;28;20029;-73
2021/06/05 04:16:14;;;;;;;9.00;5.63;;;;;16.70;100544.00;;;;5063057;28;20109;-73
2021/06/05 04:18:43;;;;;;;5.93;4.85;;;;;16.80;100558.00;;;;5062682;28;20036;-73
2021/06/05 04:21:14;;;;;;;10.73;5.45;;;;;16.90;100544.00;;;;5064153;28;20040;-73
2021/06/05 04:23:40;;;;;;;8.95;5.55;;;;;16.90;100553.00;;;;5064793;28;20040;-74
2021/06/05 04:26:08;;;;;;;7.25;5.53;;;;;17.00;100571.00;;;;5063038;28;20020;-73
2021/06/05 04:28:36;;;;;;;12.55;6.30;;;;;17.20;100562.00;;;;5063425;28;20139;-72
2021/06/05 04:31:05;;;;;;;12.43;5.38;;;;;17.10;100575.00;;;;5064135;28;20024;-72
2021/06/05 04:33:32;;;;;;;8.75;5.50;;;;;17.00;100569.00;;;;5066433;28;20067;-72
2021/06/05 04:36:01;;;;;;;8.75;5.68;;;;;17.20;100565.00;;;;5065753;28;20052;-73
2021/06/05 04:38:30;;;;;;;6.68;5.15;;;;;17.30;100573.00;;;;5067125;28;20555;-72
2021/06/05 04:40:56;;;;;;;5.70;4.97;;;;;17.30;100574.00;;;;5065714;28;20476;-73
2021/06/05 04:43:23;;;;;;;5.85;4.68;;;;;17.10;100575.00;;;;5047911;28;20032;-72
2021/06/05 04:45:50;;;;;;;8.15;4.80;;;;;17.20;100570.00;;;;5066998;28;20521;-72
2021/06/05 04:48:17;;;;;;;7.82;4.50;;;;;17.30;100583.00;;;;5067006;28;20616;-73
2021/06/05 04:50:44;;;;;;;6.35;4.95;;;;;17.40;100582.00;;;;5065146;28;20037;-72
2021/06/05 04:53:11;;;;;;;11.27;4.88;;;;;17.30;100576.00;;;;5066346;28;20082;-73
2021/06/05 04:55:38;;;;;;;8.43;5.25;;;;;17.10;100564.00;;;;5066765;28;20028;-72
2021/06/05 04:58:06;;;;;;;5.93;4.65;;;;;17.20;100569.00;;;;5066186;28;20039;-73
2021/06/05 05:00:38;;;;;;;5.75;4.22;;;;;17.10;100574.00;;;;5066209;28;20086;-72
2021/06/05 05:03:06;;;;;;;6.05;4.55;;;;;17.20;100573.00;;;;5066097;28;20554;-73
2021/06/05 05:05:33;;;;;;;7.72;5.00;;;;;17.30;100580.00;;;;5065959;28;20151;-72
2021/06/05 05:08:00;;;;;;;8.93;5.10;;;;;17.20;100576.00;;;;5066459;28;20093;-73
2021/06/05 05:10:33;;;;;;;6.97;4.97;;;;;17.30;100575.00;;;;5066188;28;20783;-73
2021/06/05 05:13:02;;;;;;;5.90;5.10;;;;;17.10;100572.00;;;;5065299;28;20041;-73
2021/06/05 05:15:29;;;;;;;6.30;4.63;;;;;17.10;100567.00;;;;5065145;28;20066;-72
2021/06/05 05:17:56;;;;;;;6.10;4.53;;;;;17.00;100565.00;;;;5065380;28;20066;-72
2021/06/05 05:20:27;;;;;;;8.60;4.70;;;;;17.20;100564.00;;;;5065424;28;20036;-72
2021/06/05 05:22:54;;;;;;;5.07;4.57;;;;;17.20;100563.00;;;;5065540;28;20499;-73
2021/06/05 05:25:21;;;;;;;7.43;5.00;;;;;17.40;100537.00;;;;5065905;28;20037;-72
2021/06/05 05:27:48;;;;;;;8.45;4.32;;;;;17.30;100567.00;;;;5065400;28;20054;-72
2021/06/05 05:30:22;;;;;;;6.15;4.68;;;;;17.10;100564.00;;;;5065736;28;20035;-73
2021/06/05 05:32:48;;;;;;;8.20;4.50;;;;;17.10;100572.00;;;;5065715;28;20041;-72
2021/06/05 05:35:16;;;;;;;5.10;4.60;;;;;17.10;100552.00;;;;5066144;28;20025;-72
2021/06/05 05:37:43;;;;;;;7.38;5.38;;;;;17.00;100560.00;;;;5065703;28;20107;-72
2021/06/05 05:40:11;;;;;;;5.63;4.45;;;;;17.20;100552.00;;;;5064772;28;20032;-73
2021/06/05 05:42:38;;;;;;;7.50;4.55;;;;;17.10;100558.00;;;;5065176;28;20049;-72
2021/06/05 05:45:06;;;;;;;10.68;5.38;;;;;17.20;100573.00;;;;5064525;28;20508;-72
2021/06/05 05:47:32;;;;;;;7.90;4.90;;;;;17.20;100569.00;;;;5065308;28;20395;-73
2021/06/05 05:49:59;;;;;;;8.07;4.90;;;;;17.20;100559.00;;;;5064971;28;20044;-73
2021/06/05 05:52:25;;;;;;;9.70;5.00;;;;;17.20;100568.00;;;;5065341;28;20043;-72
2021/06/05 05:54:52;;;;;;;7.78;4.90;;;;;17.20;100562.00;;;;5046848;28;20072;-73
2021/06/05 05:57:18;;;;;;;8.32;5.03;;;;;17.20;100570.00;;;;5064736;28;20123;-73
2021/06/05 05:59:45;;;;;;;8.35;4.65;;;;;17.10;100568.00;;;;5064740;28;20028;-73
2021/06/05 06:02:11;;;;;;;7.28;4.72;;;;;17.10;100558.00;;;;5064597;28;20507;-72
2021/06/05 06:04:38;;;;;;;7.00;5.07;;;;;17.10;100565.00;;;;5065380;28;20694;-72
2021/06/05 06:07:05;;;;;;;8.38;5.35;;;;;17.10;100560.00;;;;5065150;28;20468;-72
2021/06/05 06:09:31;;;;;;;6.55;5.05;;;;;17.20;100557.00;;;;5064620;28;20478;-72
2021/06/05 06:11:58;;;;;;;9.35;5.38;;;;;17.20;100561.00;;;;5064948;28;20095;-73
2021/06/05 06:14:24;;;;;;;8.82;5.25;;;;;17.20;100560.00;;;;5063897;28;20025;-72
2021/06/05 06:16:51;;;;;;;10.55;5.45;;;;;17.20;100569.00;;;;5064772;28;20033;-73
2021/06/05 06:19:17;;;;;;;8.85;5.15;;;;;17.10;100565.00;;;;5064978;28;20036;-72
2021/06/05 06:21:45;;;;;;;7.72;5.38;;;;;17.10;100551.00;;;;5064974;28;20064;-72
2021/06/05 06:24:12;;;;;;;8.32;5.28;;;;;17.10;100555.00;;;;5064667;28;20035;-73
2021/06/05 06:26:40;;;;;;;7.82;5.43;;;;;17.00;100541.00;;;;5064220;28;20510;-72
2021/06/05 06:29:16;;;;;;;7.55;5.85;;;;;17.00;100552.00;;;;5064255;28;20067;-72
2021/06/05 06:31:45;;;;;;;9.07;5.60;;;;;16.90;100547.00;;;;5064633;28;20486;-72
2021/06/05 06:34:13;;;;;;;8.65;5.50;;;;;17.00;100540.00;;;;5064122;28;20045;-72
2021/06/05 06:36:44;;;;;;;8.52;5.32;;;;;16.90;100528.00;;;;5064281;28;20043;-72
2021/06/05 06:39:12;;;;;;;;;;;;;16.90;100546.00;;;;5064198;28;20126;-73
2021/06/05 06:41:38;;;;;;;10.45;5.30;;;;;16.90;100519.00;;;;5064446;28;19923;-73
2021/06/05 06:44:07;;;;;;;7.32;5.80;;;;;16.80;100534.00;;;;5064007;28;20032;-73
2021/06/05 06:46:44;;;;;;;7.85;5.22;;;;;16.90;100510.00;;;;5064316;28;20808;-72
2021/06/05 06:49:11;;;;;;;8.88;5.38;;;;;16.90;100524.00;;;;5064312;28;20032;-73
2021/06/05 06:51:38;;;;;;;8.07;6.13;;;;;16.90;100540.00;;;;5064085;28;20129;-73
2021/06/05 06:54:07;;;;;;;5.95;5.38;;;;;17.00;100538.00;;;;5045097;28;20037;-72
2021/06/05 06:56:34;;;;;;;8.18;5.70;;;;;16.90;100529.00;;;;5064242;28;20036;-73
2021/06/05 06:59:01;;;;;;;7.25;6.10;;;;;17.00;100533.00;;;;5046406;28;20056;-72
2021/06/05 07:01:28;;;;;;;8.05;5.63;;;;;16.80;100527.00;;;;5063874;28;20028;-72
2021/06/05 07:03:55;;;;;;;8.88;5.38;;;;;16.80;100512.00;;;;5063931;28;20028;-73
2021/06/05 07:06:25;;;;;;;7.47;5.45;;;;;16.70;100513.00;;;;5063616;28;20041;-73
2021/06/05 07:08:52;;;;;;;10.00;5.57;;;;;16.60;100511.00;;;;5063315;28;20036;-72
2021/06/05 07:11:28;;;;;;;8.85;6.40;;;;;16.70;100496.00;;;;5065229;28;20032;-72
2021/06/05 07:13:55;;;;;;;11.65;6.10;;;;;16.60;100504.00;;;;5067450;28;20036;-73
2021/06/05 07:16:23;;;;;;;10.27;5.60;;;;;16.60;100492.00;;;;5063324;28;20045;-73
2021/06/05 07:18:50;;;;;;;5.93;5.10;;;;;16.60;100500.00;;;;5062701;28;20047;-72
2021/06/05 07:21:18;;;;;;;6.53;5.78;;;;;16.60;100487.00;;;;5063212;28;20045;-72
2021/06/05 07:23:45;;;;;;;7.10;5.68;;;;;16.50;100492.00;;;;5064408;28;20032;-73
2021/06/05 07:26:15;;;;;;;8.15;5.82;;;;;16.50;100475.00;;;;5063299;28;20036;-72
2021/06/05 07:28:49;;;;;;;9.70;5.65;;;;;16.70;100472.00;;;;5062759;28;20051;-72
2021/06/05 07:31:22;;;;;;;7.10;5.50;;;;;16.60;100474.00;;;;5063031;28;20032;-72
2021/06/05 07:33:50;;;;;;;6.30;5.70;;;;;16.50;100461.00;;;;5063133;28;20680;-72
2021/06/05 07:36:24;;;;;;;7.20;5.32;;;;;16.60;100465.00;;;;5063829;28;20028;-73
2021/06/05 07:38:50;;;;;;;8.80;6.20;;;;;16.70;100468.00;;;;5063929;28;20094;-72
2021/06/05 07:41:17;;;;;;;8.40;6.32;;;;;16.90;100453.00;;;;5063969;28;20579;-72
2021/06/05 07:43:44;;;;;;;8.25;5.40;;;;;16.90;100459.00;;;;5062498;28;20034;-73
2021/06/05 07:46:11;;;;;;;12.60;5.55;;;;;16.80;100462.00;;;;5045414;28;20111;-72
2021/06/05 07:48:38;;;;;;;8.73;5.45;;;;;16.70;100460.00;;;;5064026;28;20103;-72
2021/06/05 07:51:08;;;;;;;7.78;5.07;;;;;16.60;100441.00;;;;5063791;28;20085;-73
2021/06/05 07:53:35;;;;;;;8.27;5.30;;;;;16.50;100448.00;;;;5063563;28;20458;-74
2021/06/05 07:56:02;;;;;;;9.48;5.47;;;;;16.50;100439.00;;;;5062833;28;20412;-74
2021/06/05 07:58:29;;;;;;;15.85;6.20;;;;;16.40;100446.00;;;;5062794;28;20557;-73
2021/06/05 08:00:55;;;;;;;7.03;5.88;;;;;16.30;100443.00;;;;5063238;28;20032;-71
2021/06/05 08:03:22;;;;;;;6.85;5.85;;;;;16.40;100436.00;;;;5063792;28;20036;-73
2021/06/05 08:05:49;;;;;;;6.90;5.68;;;;;16.60;100436.00;;;;5063184;28;20055;-73
2021/06/05 08:08:16;;;;;;;8.82;5.40;;;;;16.90;100441.00;;;;5067187;28;20486;-72
2021/06/05 08:10:44;;;;;;;7.80;5.15;;;;;16.90;100446.00;;;;5066297;28;20099;-73
2021/06/05 08:13:10;;;;;;;7.18;5.85;;;;;16.90;100433.00;;;;5067519;28;20097;-72
2021/06/05 08:15:41;;;;;;;6.18;5.32;;;;;17.00;100422.00;;;;5066763;28;20129;-73
2021/06/05 08:18:09;;;;;;;8.27;5.38;;;;;16.90;100428.00;;;;5066931;28;20036;-73
2021/06/05 08:20:58;;;;;;;10.15;5.32;;;;;16.80;100415.00;;;;5066542;28;20131;-73
2021/06/05 08:23:31;;;;;;;6.05;5.45;;;;;16.90;100419.00;;;;5048084;28;20117;-72
2021/06/05 08:25:59;;;;;;;8.38;5.20;;;;;16.80;100435.00;;;;5066963;28;20086;-72
2021/06/05 08:28:27;;;;;;;8.90;5.30;;;;;16.80;100434.00;;;;5066764;28;20063;-73
2021/06/05 08:30:59;;;;;;;9.80;4.72;;;;;16.80;100425.00;;;;5066218;28;20082;-73
2021/06/05 08:33:26;;;;;;;5.07;4.55;;;;;16.80;100434.00;;;;5066209;28;20050;-73
2021/06/05 08:35:53;;;;;;;6.13;4.95;;;;;16.70;100432.00;;;;5066012;28;20111;-72
2021/06/05 08:38:23;;;;;;;12.63;4.85;;;;;16.50;100416.00;;;;5066747;28;20056;-73
2021/06/05 08:41:04;;;;;;;6.10;4.78;;;;;16.50;100401.00;;;;5066227;28;20115;-73
2021/06/05 08:43:41;;;;;;;5.30;4.80;;;;;16.60;100415.00;;;;5066310;28;20109;-74
2021/06/05 08:46:11;;;;;;;5.40;4.75;;;;;16.70;100422.00;;;;5066254;28;20032;-73
2021/06/05 08:48:38;;;;;;;6.50;4.40;;;;;16.70;100418.00;;;;5066608;28;20408;-73
2021/06/05 08:51:11;;;;;;;6.53;4.90;;;;;16.70;100441.00;;;;5065737;28;20029;-74
2021/06/05 08:53:37;;;;;;;10.52;5.40;;;;;16.80;100430.00;;;;5066265;28;20068;-73
2021/06/05 08:56:08;;;;;;;4.97;4.43;;;;;16.80;100432.00;;;;5065422;28;20032;-73
2021/06/05 08:58:45;;;;;;;7.60;4.83;;;;;16.90;100436.00;;;;5066075;28;20051;-73
2021/06/05 09:01:23;;;;;;;10.63;4.95;;;;;16.90;100430.00;;;;5066091;28;20107;-72
2021/06/05 09:03:57;;;;;;;10.00;4.80;;;;;16.80;100440.00;;;;5065990;28;20036;-73
2021/06/05 09:06:45;;;;;;;7.65;4.72;;;;;16.60;100453.00;;;;5066630;28;20028;-72
2021/06/05 09:09:16;;;;;;;8.50;4.70;;;;;16.60;100443.00;;;;5065968;28;21103;-72
2021/06/05 09:11:42;;;;;;;;;;;;;16.50;100457.00;;;;5066352;28;20036;-73
2021/06/05 09:14:09;;;;;;;8.95;4.78;;;;;16.60;100460.00;;;;5065940;28;19962;-73
2021/06/05 09:16:47;;;;;;;6.57;4.80;;;;;16.70;100458.00;;;;5065189;28;20024;-72
2021/06/05 09:19:27;;;;;;;14.02;5.47;;;;;16.60;100467.00;;;;5065808;28;20072;-73
2021/06/05 09:22:01;;;;;;;8.77;5.18;;;;;16.70;100463.00;;;;5066413;28;20020;-72
2021/06/05 09:24:35;;;;;;;6.47;4.45;;;;;16.90;100473.00;;;;5065169;28;20024;-72
2021/06/05 09:27:08;;;;;;;8.60;5.15;;;;;16.80;100470.00;;;;5066503;28;20535;-74
2021/06/05 09:30:08;;;;;;;7.68;4.80;;;;;16.80;100477.00;;;;5065504;28;20059;-73
2021/06/05 09:32:54;;;;;;;6.55;4.70;;;;;17.00;100481.00;;;;5051052;28;20072;-74
2021/06/05 09:35:26;;;;;;;7.97;5.25;;;;;17.00;100476.00;;;;5066578;28;20140;-72
2021/06/05 09:37:55;;;;;;;9.90;4.63;;;;;17.10;100483.00;;;;5065730;28;20103;-73
2021/06/05 09:40:32;;;;;;;8.10;4.63;;;;;17.20;100490.00;;;;5065396;28;20636;-72
2021/06/05 09:43:08;;;;;;;5.60;4.50;;;;;17.40;100489.00;;;;5065234;28;20079;-73
2021/06/05 09:45:41;;;;;;;6.43;4.25;;;;;17.50;100479.00;;;;5065021;28;20163;-73
2021/06/05 09:48:28;;;;;;;6.60;4.00;;;;;17.80;100488.00;;;;5064868;28;20039;-73
2021/06/05 09:50:59;;;;;;;8.55;4.65;;;;;17.80;100470.00;;;;5064944;28;20032;-73
2021/06/05 09:53:29;;;;;;;8.02;4.25;;;;;17.80;100491.00;;;;5065114;28;20036;-73
2021/06/05 09:55:59;;;;;;;8.30;4.65;;;;;17.60;100485.00;;;;5064493;28;20060;-74
2021/06/05 09:58:39;;;;;;;8.60;4.95;;;;;17.70;100476.00;;;;5064203;28;20032;-71
2021/06/05 10:01:18;;;;;;;7.38;4.03;;;;;18.00;100484.00;;;;5065110;28;20036;-70
2021/06/05 10:03:46;;;;;;;5.97;4.13;;;;;18.00;100483.00;;;;5069266;28;20120;-71
2021/06/05 10:06:32;;;;;;;5.63;3.90;;;;;18.20;100477.00;;;;5067188;28;20036;-71
2021/06/05 10:09:04;;;;;;;6.38;4.43;;;;;18.00;100484.00;;;;5064485;28;20415;-72
2021/06/05 10:11:33;;;;;;;8.73;4.20;;;;;18.10;100484.00;;;;5064477;28;20033;-71
2021/06/05 10:14:16;;;;;;;10.85;4.20;;;;;18.20;100477.00;;;;5064535;28;20039;-74
2021/06/05 10:17:03;;;;;;;7.13;4.03;;;;;18.10;100476.00;;;;5065288;28;20033;-74
2021/06/05 10:19:40;;;;;;;7.45;4.05;;;;;18.40;100486.00;;;;5064662;28;20025;-74
2021/06/05 10:22:08;;;;;;;10.43;3.67;;;;;18.70;100478.00;;;;5064901;28;20055;-73
2021/06/05 10:24:37;;;;;;;13.20;4.10;;;;;18.80;100480.00;;;;5064155;28;20024;-74
2021/06/05 10:27:19;;;;;;;8.23;4.68;;;;;18.60;100481.00;;;;5064328;28;20040;-74
2021/06/05 10:29:54;;;;;;;11.75;6.68;;;;;18.60;100486.00;;;;5063304;28;20076;-73
2021/06/05 10:32:42;;;;;;;10.40;5.95;;;;;18.50;100476.00;;;;5063967;28;20032;-73
2021/06/05 10:35:17;;;;;;;9.35;5.32;;;;;18.50;100485.00;;;;5064579;28;20129;-73
2021/06/05 10:37:46;;;;;;;8.68;4.43;;;;;18.60;100483.00;;;;5064343;28;20060;-72
2021/06/05 10:40:20;;;;;;;7.05;4.05;;;;;18.70;100476.00;;;;5063883;28;20040;-74
2021/06/05 10:42:52;;;;;;;7.20;3.70;;;;;19.00;100490.00;;;;5064086;28;20550;-73
2021/06/05 10:45:32;;;;;;;9.55;4.25;;;;;18.90;100476.00;;;;5064576;28;20028;-73
2021/06/05 10:48:05;;;;;;;7.20;4.13;;;;;18.80;100477.00;;;;5046240;28;20585;-73
2021/06/05 10:50:36;;;;;;;8.18;3.67;;;;;19.30;100461.00;;;;5063991;28;20037;-72
2021/06/05 10:53:24;;;;;;;7.90;3.75;;;;;20.20;100426.00;;;;5064177;28;20040;-73
2021/06/05 10:56:11;;;;;;;7.78;3.42;;;;;21.20;100396.00;;;;5063943;28;21236;-71
2021/06/05 10:58:46;;;;;;;9.35;3.65;;;;;20.70;100420.00;;;;5064494;28;20033;-73
2021/06/05 11:01:38;;;;;;;5.47;3.60;;;;;21.20;100447.00;;;;5064502;28;20074;-71
2021/06/05 11:04:33;;;;;;;7.68;3.72;;;;;21.60;100435.00;;;;5063930;28;20036;-73
2021/06/05 11:07:03;;;;;;;4.90;3.30;;;;;22.20;100410.00;;;;5057644;28;20166;-72
2021/06/05 11:09:30;;;;;;;11.02;3.65;;;;;22.90;100376.00;;;;5063766;28;20032;-73
2021/06/05 11:12:23;;;;;;;6.53;3.20;;;;;23.80;100376.00;;;;5064499;28;20047;-72
2021/06/05 11:14:51;;;;;;;6.82;3.60;;;;;22.60;100441.00;;;;5053395;28;20101;-71
2021/06/05 11:17:26;;;;;;;6.53;3.00;;;;;23.70;100377.00;;;;5063990;28;21187;-72
2021/06/05 11:20:19;;;;;;;8.02;3.67;;;;;24.80;100372.00;;;;5063442;28;20054;-72
2021/06/05 11:22:49;;;;;;;5.93;2.97;;;;;24.30;100351.00;;;;5063948;28;20119;-72
2021/06/05 11:25:16;;;;;;;4.00;3.10;;;;;25.30;100317.00;;;;5064476;28;20035;-72
2021/06/05 11:27:42;;;;;;;9.35;3.40;;;;;25.60;100333.00;;;;5064533;28;20462;-72
2021/06/05 11:30:29;;;;;;;10.07;3.08;;;;;27.60;100325.00;;;;5063906;28;20098;-71
2021/06/05 11:32:58;;;;;;;4.80;3.53;;;;;27.40;100314.00;;;;5049926;28;20048;-73
2021/06/05 11:35:40;;;;;;;4.45;3.30;;;;;28.50;100331.00;;;;5064234;28;20031;-73
2021/06/05 11:38:19;;;;;;;4.00;3.17;;;;;29.00;100331.00;;;;5064212;28;20041;-72
2021/06/05 11:40:54;;;;;;;12.50;3.03;;;;;29.10;100331.00;;;;5064925;28;20545;-72
2021/06/05 11:43:42;;;;;;;5.07;2.58;;;;;30.00;100312.00;;;;5068400;28;20519;-71
2021/06/05 11:46:17;;;;;;;6.35;2.60;;;;;29.80;100310.00;;;;5067344;28;20025;-71
2021/06/05 11:48:54;;;;;;;10.00;2.80;;;;;29.60;100318.00;;;;5067717;28;20538;-73
2021/06/05 11:51:20;;;;;;;6.07;2.88;;;;;29.70;100323.00;;;;5067708;28;20017;-72
2021/06/05 11:54:03;;;;;;;14.90;3.13;;;;;29.60;100323.00;;;;5067308;28;20112;-73
2021/06/05 11:56:45;;;;;;;6.63;3.00;;;;;29.90;100355.00;;;;5068252;28;20368;-71
2021/06/05 11:59:17;;;;;;;9.68;2.38;;;;;30.40;100360.00;;;;5067698;28;20040;-72
2021/06/05 12:01:44;;;;;;;6.53;3.00;;;;;30.10;100358.00;;;;5066704;28;20020;-73
2021/06/05 12:04:15;;;;;;;10.55;3.03;;;;;29.90;100361.00;;;;5048764;28;20487;-72
2021/06/05 12:06:44;;;;;;;7.68;2.53;;;;;30.50;100297.00;;;;5067379;28;20453;-72
2021/06/05 12:09:15;;;;;;;5.45;2.88;;;;;31.10;100309.00;;;;5068216;28;20067;-73
2021/06/05 12:11:44;;;;;;;6.18;3.00;;;;;31.50;100341.00;;;;5049514;28;20035;-72
2021/06/05 12:14:24;;;;;;;8.50;2.78;;;;;31.30;100356.00;;;;5066756;28;20480;-74
2021/06/05 12:16:58;;;;;;;4.20;2.60;;;;;31.10;100338.00;;;;5066863;28;20482;-73
2021/06/05 12:19:32;;;;;;;10.52;2.55;;;;;31.80;100374.00;;;;5067760;28;20028;-74
2021/06/05 12:22:20;;;;;;;6.93;2.30;;;;;32.70;100403.00;;;;5067827;28;20039;-73
2021/06/05 12:24:52;;;;;;;14.25;2.70;;;;;31.80;100376.00;;;;5067483;28;20514;-74